createdAt,value
2019-02-19T00:01:50.944Z,186.10
2019-02-19T00:04:22.487Z,171.03
2019-02-19T00:06:54.028Z,180.97
2019-02-19T00:09:25.511Z,173.20
2019-02-19T00:11:57.140Z,167.03
2019-02-19T00:14:28.644Z,157.73
2019-02-19T00:17:00.495Z,171.17
2019-02-19T00:19:32.071Z,181.53
2019-02-19T00:22:03.446Z,179.60
2019-02-19T00:24:35.021Z,182.50
2019-02-19T00:27:06.805Z,178.10
2019-02-19T00:29:38.671Z,176.97
2019-02-19T00:32:11.693Z,163.63
2019-02-19T00:34:43.186Z,172.57
2019-02-19T00:37:14.732Z,162.70
2019-02-19T00:39:46.527Z,169.27
2019-02-19T00:42:18.354Z,168.47
2019-02-19T00:44:50.272Z,165.17
2019-02-19T00:47:21.942Z,170.33
2019-02-19T00:49:53.734Z,175.57
2019-02-19T00:52:25.278Z,169.47
2019-02-19T00:54:56.613Z,167.07
2019-02-19T00:57:28.035Z,152.27
2019-02-19T00:59:59.490Z,161.23
2019-02-19T01:02:31.101Z,175.83
2019-02-19T01:05:02.667Z,157.97
2019-02-19T01:07:35.556Z,172.13
2019-02-19T01:10:07.894Z,157.40
2019-02-19T01:12:39.661Z,152.77
2019-02-19T01:15:11.841Z,167.53
2019-02-19T01:17:43.439Z,172.13
2019-02-19T01:20:14.886Z,174.53
2019-02-19T01:22:47.418Z,152.17
2019-02-19T01:25:19.338Z,157.20
2019-02-19T01:27:51.293Z,151.87
2019-02-19T01:30:22.811Z,157.90
2019-02-19T01:32:59.800Z,149.63
2019-02-19T01:35:31.295Z,153.50
2019-02-19T01:38:02.932Z,164.13
2019-02-19T01:40:34.492Z,153.87
2019-02-19T01:43:06.005Z,152.30
2019-02-19T01:45:37.567Z,149.00
2019-02-19T01:48:09.288Z,144.73
2019-02-19T01:50:40.727Z,146.70
2019-02-19T01:53:13.664Z,142.60
2019-02-19T01:55:45.354Z,152.53
2019-02-19T01:58:16.764Z,157.33
2019-02-19T02:00:48.398Z,160.33
2019-02-19T02:03:20.428Z,158.00
2019-02-19T02:05:52.162Z,165.67
2019-02-19T02:08:23.814Z,153.03
2019-02-19T02:10:55.230Z,157.20
2019-02-19T02:13:26.562Z,147.07
2019-02-19T02:15:57.858Z,160.90
2019-02-19T02:18:29.421Z,151.97
2019-02-19T02:21:01.112Z,166.73
2019-02-19T02:23:33.497Z,157.03
2019-02-19T02:26:04.937Z,159.50
2019-02-19T02:28:37.739Z,151.43
2019-02-19T02:31:09.370Z,148.93
2019-02-19T02:33:40.844Z,146.03
2019-02-19T02:36:12.916Z,156.57
2019-02-19T02:38:44.521Z,154.80
2019-02-19T02:41:15.896Z,143.87
2019-02-19T02:43:47.551Z,147.70
2019-02-19T02:46:19.228Z,150.43
2019-02-19T02:48:51.130Z,153.23
2019-02-19T02:51:22.594Z,158.23
2019-02-19T02:53:54.002Z,141.87
2019-02-19T02:56:25.491Z,142.23
2019-02-19T02:58:56.836Z,160.57
2019-02-19T03:01:28.962Z,154.97
2019-02-19T03:04:00.223Z,146.67
2019-02-19T03:06:59.634Z,172.33
2019-02-19T03:09:31.086Z,179.40
2019-02-19T03:12:07.988Z,158.10
2019-02-19T03:14:39.740Z,175.30
2019-02-19T03:17:11.669Z,180.83
2019-02-19T03:19:43.354Z,198.23
2019-02-19T03:22:15.415Z,178.13
2019-02-19T03:24:46.984Z,197.33
2019-02-19T03:27:18.498Z,196.37
2019-02-19T03:29:50.177Z,196.80
2019-02-19T03:32:22.381Z,341.63
2019-02-19T03:37:25.133Z,170.80
2019-02-19T03:39:56.966Z,204.60
2019-02-19T03:42:28.632Z,203.87
2019-02-19T03:45:00.333Z,381.30
2019-02-19T03:47:33.002Z,319.20
2019-02-19T03:50:05.180Z,293.73
2019-02-19T03:52:36.565Z,246.70
2019-02-19T03:55:07.953Z,179.37
2019-02-19T03:57:39.603Z,247.03
2019-02-19T04:00:11.764Z,258.20
2019-02-19T04:02:48.454Z,223.50
2019-02-19T04:05:20.308Z,312.73
2019-02-19T04:07:52.070Z,249.03
2019-02-19T04:10:23.629Z,238.63
2019-02-19T04:12:55.766Z,265.57
2019-02-19T04:15:27.038Z,254.60
2019-02-19T04:17:58.627Z,302.23
2019-02-19T04:20:30.129Z,334.17
2019-02-19T04:23:01.588Z,254.67
2019-02-19T04:25:32.873Z,277.10
2019-02-19T04:28:06.663Z,218.30
2019-02-19T04:30:38.673Z,181.07
2019-02-19T04:33:11.210Z,170.47
2019-02-19T04:35:42.675Z,170.40
2019-02-19T04:38:14.178Z,154.20
2019-02-19T04:40:45.663Z,162.60
2019-02-19T04:43:17.650Z,158.73
2019-02-19T04:45:49.056Z,161.80
2019-02-19T04:48:21.722Z,167.43
2019-02-19T04:50:53.353Z,155.77
2019-02-19T04:53:24.985Z,156.83
2019-02-19T04:55:56.320Z,152.90
2019-02-19T04:58:28.032Z,159.60
2019-02-19T05:00:59.357Z,196.33
2019-02-19T05:03:32.768Z,191.53
2019-02-19T05:06:04.169Z,193.57
2019-02-19T05:08:36.212Z,183.40
2019-02-19T05:11:07.666Z,179.47
2019-02-19T05:13:39.290Z,176.10
2019-02-19T05:16:10.876Z,159.40
2019-02-19T05:18:42.453Z,166.53
2019-02-19T05:21:13.913Z,166.93
2019-02-19T05:23:46.928Z,161.10
2019-02-19T05:26:18.429Z,154.37
2019-02-19T05:28:50.464Z,158.50
2019-02-19T05:31:22.196Z,146.47
2019-02-19T05:33:53.842Z,153.33
2019-02-19T05:36:25.305Z,156.27
2019-02-19T05:38:56.770Z,155.13
2019-02-19T05:41:28.276Z,154.73
2019-02-19T05:43:59.945Z,156.17
2019-02-19T05:46:31.431Z,151.00
2019-02-19T05:49:03.132Z,176.57
2019-02-19T05:51:34.881Z,175.03
2019-02-19T05:54:06.373Z,169.23
2019-02-19T05:56:38.276Z,150.03
2019-02-19T05:59:10.310Z,152.20
2019-02-19T06:01:41.916Z,148.43
2019-02-19T06:04:13.624Z,148.93
2019-02-19T06:06:45.128Z,150.20
2019-02-19T06:09:16.510Z,183.63
2019-02-19T06:11:48.566Z,157.73
2019-02-19T06:14:20.449Z,149.30
2019-02-19T06:16:58.294Z,147.53
2019-02-19T06:19:25.681Z,151.57
2019-02-19T06:21:57.590Z,140.63
2019-02-19T06:24:29.175Z,144.67
2019-02-19T06:27:00.553Z,134.97
2019-02-19T06:29:32.079Z,124.07
2019-02-19T06:32:03.571Z,143.53
2019-02-19T06:34:35.210Z,147.80
2019-02-19T06:37:06.776Z,137.77
2019-02-19T06:39:38.597Z,128.07
2019-02-19T06:42:15.467Z,133.00
2019-02-19T06:44:47.583Z,127.37
2019-02-19T06:47:19.147Z,115.93
2019-02-19T06:49:50.970Z,120.30
2019-02-19T06:52:22.680Z,131.63
2019-02-19T06:54:54.493Z,130.87
2019-02-19T06:57:26.104Z,123.57
2019-02-19T06:59:58.243Z,116.17
2019-02-19T07:02:47.603Z,112.93
2019-02-19T07:05:22.439Z,101.10
2019-02-19T07:07:53.830Z,102.97
2019-02-19T07:10:25.429Z,102.30
2019-02-19T07:12:56.852Z,100.22
2019-02-19T07:15:28.203Z,107.57
2019-02-19T07:17:59.507Z,93.63
2019-02-19T07:20:31.493Z,90.63
2019-02-19T07:23:02.966Z,96.13
2019-02-19T07:25:34.489Z,94.30
2019-02-19T07:28:06.084Z,87.40
2019-02-19T07:30:37.570Z,88.60
2019-02-19T07:33:14.546Z,84.50
2019-02-19T07:35:46.006Z,84.33
2019-02-19T07:38:19.380Z,79.37
2019-02-19T07:40:52.103Z,78.23
2019-02-19T07:43:23.809Z,75.73
2019-02-19T07:45:55.387Z,87.80
2019-02-19T07:48:26.877Z,96.43
2019-02-19T07:50:58.226Z,86.77
2019-02-19T07:53:29.801Z,72.10
2019-02-19T07:56:01.061Z,80.93
2019-02-19T07:58:32.608Z,74.27
2019-02-19T08:01:04.812Z,84.53
2019-02-19T08:03:36.238Z,71.57
2019-02-19T08:06:07.600Z,67.67
2019-02-19T08:08:41.178Z,68.97
2019-02-19T08:11:12.889Z,69.47
2019-02-19T08:13:44.352Z,71.43
2019-02-19T08:16:15.859Z,71.03
2019-02-19T08:18:47.696Z,83.33
2019-02-19T08:21:19.001Z,99.77
2019-02-19T08:23:53.975Z,101.00
2019-02-19T08:26:25.383Z,104.97
2019-02-19T08:29:06.922Z,97.33
2019-02-19T08:31:30.131Z,101.37
2019-02-19T08:34:01.415Z,77.40
2019-02-19T08:36:32.776Z,69.60
2019-02-19T08:39:04.738Z,70.20
2019-02-19T08:41:36.398Z,67.97
2019-02-19T08:44:08.509Z,77.20
2019-02-19T08:46:40.164Z,70.63
2019-02-19T08:49:11.794Z,70.27
2019-02-19T08:51:43.640Z,74.40
2019-02-19T08:54:15.410Z,76.43
2019-02-19T08:56:47.733Z,74.63
2019-02-19T08:59:19.520Z,75.27
2019-02-19T09:01:51.275Z,72.33
2019-02-19T09:04:22.841Z,70.70
2019-02-19T09:06:54.237Z,63.73
2019-02-19T09:09:25.629Z,69.77
2019-02-19T09:11:57.481Z,71.80
2019-02-19T09:14:28.857Z,62.30
2019-02-19T09:17:00.285Z,64.37
2019-02-19T09:19:31.554Z,62.17
2019-02-19T09:22:03.654Z,67.90
2019-02-19T09:24:35.192Z,67.50
2019-02-19T09:27:07.058Z,65.73
2019-02-19T09:29:38.608Z,67.40
2019-02-19T09:32:10.542Z,68.67
2019-02-19T09:34:41.988Z,72.07
2019-02-19T09:37:13.351Z,71.70
2019-02-19T09:39:44.917Z,71.13
2019-02-19T09:42:16.619Z,69.47
2019-02-19T09:44:48.413Z,70.43
2019-02-19T09:47:19.961Z,65.93
2019-02-19T09:49:51.620Z,69.17
2019-02-19T09:52:28.505Z,71.60
2019-02-19T09:54:59.892Z,67.80
2019-02-19T09:57:32.704Z,67.27
2019-02-19T10:00:05.626Z,69.47
2019-02-19T10:02:37.235Z,60.27
2019-02-19T10:05:10.519Z,66.77
2019-02-19T10:07:41.896Z,64.40
2019-02-19T10:10:14.743Z,65.50
2019-02-19T10:12:46.737Z,57.00
2019-02-19T10:15:18.249Z,58.07
2019-02-19T10:17:50.275Z,56.13
2019-02-19T10:20:21.886Z,58.10
2019-02-19T10:22:58.617Z,63.47
2019-02-19T10:25:30.026Z,58.30
2019-02-19T10:28:01.297Z,56.13
2019-02-19T10:30:32.919Z,59.00
2019-02-19T10:33:04.371Z,58.47
2019-02-19T10:35:35.731Z,61.43
2019-02-19T10:38:07.153Z,59.07
2019-02-19T10:40:39.497Z,56.07
2019-02-19T10:43:11.320Z,60.27
2019-02-19T10:45:42.883Z,60.17
2019-02-19T10:48:19.082Z,63.07
2019-02-19T10:50:47.684Z,59.47
2019-02-19T10:53:29.839Z,58.77
2019-02-19T10:56:01.380Z,56.97
2019-02-19T10:58:32.952Z,59.80
2019-02-19T11:01:04.337Z,62.37
2019-02-19T11:03:35.897Z,55.80
2019-02-19T11:06:07.483Z,51.20
2019-02-19T11:08:38.935Z,59.43
2019-02-19T11:11:10.595Z,56.87
2019-02-19T11:13:42.041Z,58.87
2019-02-19T11:16:13.463Z,56.33
2019-02-19T11:18:44.975Z,54.83
2019-02-19T11:21:21.908Z,54.07
2019-02-19T11:23:53.845Z,57.17
2019-02-19T11:26:25.345Z,50.63
2019-02-19T11:28:57.026Z,51.60
2019-02-19T11:31:28.456Z,50.90
2019-02-19T11:33:59.987Z,49.20
2019-02-19T11:36:31.537Z,51.73
2019-02-19T11:39:03.737Z,44.33
2019-02-19T11:41:36.823Z,44.27
2019-02-19T11:44:08.381Z,43.07
2019-02-19T11:46:39.995Z,37.97
2019-02-19T11:49:12.237Z,40.40
2019-02-19T11:51:44.143Z,40.03
2019-02-19T11:54:15.791Z,38.13
2019-02-19T11:56:47.502Z,36.50
2019-02-19T11:59:19.357Z,41.17
2019-02-19T12:01:51.607Z,41.33
2019-02-19T12:04:23.136Z,38.70
2019-02-19T12:06:54.796Z,44.10
2019-02-19T12:09:26.321Z,37.80
2019-02-19T12:12:02.901Z,39.83
2019-02-19T12:14:34.617Z,36.00
2019-02-19T12:17:06.262Z,36.43
2019-02-19T12:19:37.762Z,39.50
2019-02-19T12:22:14.727Z,40.07
2019-02-19T12:24:46.328Z,43.10
2019-02-19T12:27:17.817Z,36.93
2019-02-19T12:29:49.471Z,40.67
2019-02-19T12:32:21.413Z,39.07
2019-02-19T12:34:53.398Z,43.33
2019-02-19T12:37:25.815Z,43.27
2019-02-19T12:39:57.272Z,42.23
2019-02-19T12:42:28.904Z,47.97
2019-02-19T12:45:00.393Z,43.50
2019-02-19T12:47:31.982Z,42.57
2019-02-19T12:50:03.337Z,43.73
2019-02-19T12:52:35.167Z,47.27
2019-02-19T12:55:07.019Z,42.20
2019-02-19T12:57:39.012Z,44.43
2019-02-19T13:00:13.634Z,49.70
2019-02-19T13:02:45.632Z,52.33
2019-02-19T13:05:17.218Z,44.10
2019-02-19T13:07:48.704Z,44.90
2019-02-19T13:10:20.526Z,42.63
2019-02-19T13:12:52.700Z,41.87
2019-02-19T13:15:23.924Z,39.63
2019-02-19T13:17:55.432Z,37.00
2019-02-19T13:20:26.880Z,39.80
2019-02-19T13:22:58.947Z,36.70
2019-02-19T13:25:30.290Z,41.97
2019-02-19T13:28:01.641Z,35.33
2019-02-19T13:30:33.375Z,30.17
2019-02-19T13:33:04.990Z,27.87
2019-02-19T13:35:36.855Z,33.37
2019-02-19T13:38:08.811Z,23.37
2019-02-19T13:40:40.085Z,32.20
2019-02-19T13:43:11.750Z,31.03
2019-02-19T13:45:43.474Z,26.63
2019-02-19T13:48:15.403Z,26.73
2019-02-19T13:50:47.290Z,25.70
2019-02-19T13:53:27.724Z,26.77
2019-02-19T13:56:00.840Z,27.33
2019-02-19T13:58:33.202Z,19.80
2019-02-19T14:01:04.721Z,22.67
2019-02-19T14:03:36.350Z,21.90
2019-02-19T14:06:08.119Z,24.17
2019-02-19T14:08:39.786Z,21.07
2019-02-19T14:11:12.408Z,21.43
2019-02-19T14:13:50.457Z,18.70
2019-02-19T14:16:29.057Z,17.90
2019-02-19T14:19:05.528Z,19.77
2019-02-19T14:22:11.629Z,21.27
2019-02-19T14:25:02.219Z,19.30
2019-02-19T14:28:06.950Z,20.23
2019-02-19T14:30:57.016Z,17.70
2019-02-19T14:33:48.935Z,18.67
2019-02-19T14:36:41.564Z,19.67
2019-02-19T14:39:30.626Z,19.00
2019-02-19T14:42:18.777Z,20.48
2019-02-19T14:45:06.830Z,21.13
2019-02-19T14:47:57.238Z,23.53
2019-02-19T14:50:46.283Z,21.87
2019-02-19T14:53:39.511Z,19.30
2019-02-19T14:56:30.315Z,25.30
2019-02-19T14:59:40.340Z,22.23
2019-02-19T15:02:32.047Z,24.80
2019-02-19T15:05:28.806Z,22.43
2019-02-19T15:08:18.800Z,26.00
2019-02-19T15:11:08.086Z,25.10
2019-02-19T15:14:04.637Z,24.17
2019-02-19T15:16:43.701Z,25.90
2019-02-19T15:19:49.962Z,24.27
2019-02-19T15:23:12.978Z,30.93
2019-02-19T15:25:54.661Z,30.07
2019-02-19T15:28:38.341Z,20.07
2019-02-19T15:31:46.956Z,23.87
2019-02-19T15:34:35.900Z,26.77
2019-02-19T15:37:12.816Z,20.27
2019-02-19T15:40:01.688Z,25.33
2019-02-19T15:43:03.844Z,25.83
2019-02-19T15:46:03.154Z,24.43
2019-02-19T15:48:52.612Z,23.77
2019-02-19T15:51:43.219Z,31.20
2019-02-19T15:54:33.718Z,31.53
2019-02-19T15:57:33.261Z,26.30
2019-02-19T16:00:39.834Z,29.07
2019-02-19T16:03:49.712Z,29.90
2019-02-19T16:06:42.026Z,28.80
2019-02-19T16:09:31.008Z,27.60
2019-02-19T16:12:22.406Z,30.50
2019-02-19T16:15:06.285Z,27.73
2019-02-19T16:18:09.511Z,32.43
2019-02-19T16:20:59.922Z,27.57
2019-02-19T16:23:40.393Z,26.77
2019-02-19T16:26:31.594Z,25.10
2019-02-19T16:29:21.211Z,25.60
2019-02-19T16:32:23.079Z,27.30
2019-02-19T16:35:12.069Z,26.33
2019-02-19T16:37:52.081Z,31.60
2019-02-19T16:40:51.614Z,25.43
2019-02-19T16:43:42.387Z,22.77
2019-02-19T16:46:32.938Z,27.47
2019-02-19T16:49:23.404Z,27.53
2019-02-19T16:52:08.052Z,25.77
2019-02-19T16:54:56.187Z,23.83
2019-02-19T16:57:39.291Z,24.07
2019-02-19T17:00:40.699Z,23.70
2019-02-19T17:03:24.801Z,25.27
2019-02-19T17:06:24.849Z,27.43
2019-02-19T17:09:06.425Z,22.17
2019-02-19T17:12:12.820Z,28.73
2019-02-19T17:15:01.792Z,28.67
2019-02-19T17:17:50.874Z,28.83
2019-02-19T17:20:32.786Z,27.87
2019-02-19T17:23:29.942Z,34.63
2019-02-19T17:26:12.066Z,28.77
2019-02-19T17:29:08.723Z,25.00
2019-02-19T17:32:02.002Z,24.63
2019-02-19T17:34:55.268Z,22.80
2019-02-19T17:37:56.330Z,27.73
2019-02-19T17:40:46.676Z,23.37
2019-02-19T17:43:36.341Z,28.03
2019-02-19T17:46:16.583Z,26.07
2019-02-19T17:48:59.793Z,25.10
2019-02-19T17:51:51.869Z,26.07
2019-02-19T17:54:48.254Z,26.80
2019-02-19T17:57:33.745Z,25.03
2019-02-19T18:00:18.096Z,23.97
2019-02-19T18:03:07.522Z,22.73
2019-02-19T18:05:58.536Z,23.20
2019-02-19T18:08:48.785Z,26.70
2019-02-19T18:11:28.800Z,27.63
2019-02-19T18:14:18.284Z,23.47
2019-02-19T18:17:12.270Z,26.67
2019-02-19T18:19:44.894Z,23.83
2019-02-19T18:22:16.937Z,23.87
2019-02-19T18:24:48.629Z,22.63
2019-02-19T18:27:20.487Z,24.40
2019-02-19T18:29:52.334Z,24.43
2019-02-19T18:32:23.836Z,25.00
2019-02-19T18:34:55.456Z,26.63
2019-02-19T18:37:26.796Z,28.10
2019-02-19T18:39:58.380Z,40.90
2019-02-19T18:42:29.998Z,31.00
2019-02-19T18:45:01.650Z,32.83
2019-02-19T18:47:33.035Z,36.03
2019-02-19T18:50:04.869Z,35.53
2019-02-19T18:52:36.401Z,35.27
2019-02-19T18:55:08.768Z,36.30
2019-02-19T18:57:40.424Z,40.67
2019-02-19T19:00:12.789Z,48.33
2019-02-19T19:02:44.769Z,60.27
2019-02-19T19:05:16.431Z,57.73
2019-02-19T19:07:47.962Z,48.50
2019-02-19T19:10:19.859Z,47.60
2019-02-19T19:12:51.785Z,38.43
2019-02-19T19:15:23.520Z,36.63
2019-02-19T19:17:54.904Z,41.30
2019-02-19T19:20:26.620Z,26.77
2019-02-19T19:22:58.003Z,27.43
2019-02-19T19:25:29.934Z,23.17
2019-02-19T19:28:01.877Z,24.40
2019-02-19T19:30:33.471Z,25.03
2019-02-19T19:33:05.690Z,21.73
2019-02-19T19:35:37.611Z,22.77
2019-02-19T19:38:09.625Z,22.93
2019-02-19T19:40:41.156Z,19.50
2019-02-19T19:43:18.090Z,18.87
2019-02-19T19:45:50.164Z,19.50
2019-02-19T19:48:23.317Z,20.70
2019-02-19T19:50:54.591Z,20.43
2019-02-19T19:53:26.393Z,19.60
2019-02-19T19:55:57.800Z,18.10
2019-02-19T19:58:29.301Z,19.20
2019-02-19T20:01:01.116Z,17.20
2019-02-19T20:03:34.165Z,20.67
2019-02-19T20:06:05.986Z,15.33
2019-02-19T20:08:37.925Z,19.57
2019-02-19T20:11:10.059Z,16.90
2019-02-19T20:13:41.779Z,12.77
2019-02-19T20:16:13.714Z,16.87
2019-02-19T20:18:45.524Z,15.23
2019-02-19T20:21:26.208Z,15.53
2019-02-19T20:23:51.450Z,16.97
2019-02-19T20:26:23.112Z,17.80
2019-02-19T20:28:55.395Z,13.43
2019-02-19T20:31:27.251Z,13.70
2019-02-19T20:33:59.192Z,16.20
2019-02-19T20:36:31.147Z,17.70
2019-02-19T20:39:05.878Z,14.50
2019-02-19T20:41:39.756Z,16.00
2019-02-19T20:44:12.006Z,16.47
2019-02-19T20:46:43.920Z,13.53
2019-02-19T20:49:15.645Z,17.63
2019-02-19T20:51:47.417Z,14.23
2019-02-19T20:54:19.305Z,16.60
2019-02-19T20:56:51.650Z,14.67
2019-02-19T20:59:23.770Z,16.03
2019-02-19T21:01:56.493Z,18.83
2019-02-19T21:04:28.338Z,15.57
2019-02-19T21:07:00.136Z,20.60
2019-02-19T21:09:37.416Z,16.73
2019-02-19T21:12:10.658Z,14.17
2019-02-19T21:14:42.130Z,17.90
2019-02-19T21:17:13.761Z,13.10
2019-02-19T21:19:45.386Z,19.77
2019-02-19T21:22:22.473Z,13.97
2019-02-19T21:24:54.051Z,15.57
2019-02-19T21:27:25.777Z,20.33
2019-02-19T21:29:57.170Z,17.97
2019-02-19T21:32:28.728Z,15.37
2019-02-19T21:35:01.305Z,19.53
2019-02-19T21:37:32.953Z,15.53
2019-02-19T21:40:04.596Z,20.00
2019-02-19T21:42:37.855Z,20.50
2019-02-19T21:45:10.104Z,17.47
2019-02-19T21:47:41.550Z,20.50
2019-02-19T21:50:15.403Z,17.90
2019-02-19T21:52:46.702Z,22.10
2019-02-19T21:55:19.424Z,18.53
2019-02-19T21:57:51.474Z,16.67
2019-02-19T22:00:23.367Z,15.63
2019-02-19T22:02:55.006Z,17.93
2019-02-19T22:05:27.766Z,14.13
2019-02-19T22:07:59.689Z,18.70
2019-02-19T22:10:31.052Z,16.70
2019-02-19T22:13:02.621Z,12.13
2019-02-19T22:15:54.292Z,16.33
2019-02-19T22:18:25.663Z,16.70
2019-02-19T22:21:04.908Z,11.73
2019-02-19T22:23:36.791Z,12.73
2019-02-19T22:26:08.223Z,14.17
2019-02-19T22:28:39.736Z,14.00
2019-02-19T22:31:11.588Z,17.77
2019-02-19T22:33:43.290Z,14.70
2019-02-19T22:36:14.893Z,17.13
2019-02-19T22:38:46.739Z,18.90
2019-02-19T22:41:18.378Z,13.73
2019-02-19T22:43:50.198Z,15.23
2019-02-19T22:46:21.682Z,13.87
2019-02-19T22:48:53.340Z,18.70
2019-02-19T22:51:25.659Z,14.07
2019-02-19T22:54:05.706Z,16.20
2019-02-19T22:56:40.412Z,18.47
2019-02-19T22:59:11.999Z,17.53
2019-02-19T23:02:00.510Z,16.50
2019-02-19T23:04:33.703Z,13.93
2019-02-19T23:07:05.330Z,12.13
2019-02-19T23:09:36.728Z,16.27
2019-02-19T23:12:08.185Z,14.73
2019-02-19T23:14:41.337Z,22.17
2019-02-19T23:17:12.954Z,15.10
2019-02-19T23:19:44.408Z,14.50
2019-02-19T23:22:21.660Z,20.53
2019-02-19T23:24:50.443Z,18.40
2019-02-19T23:27:22.159Z,15.13
2019-02-19T23:29:53.906Z,14.93
2019-02-19T23:32:25.433Z,21.77
2019-02-19T23:35:14.700Z,19.47
2019-02-19T23:37:46.330Z,15.50
2019-02-19T23:40:17.967Z,16.33
2019-02-19T23:42:49.676Z,20.27
2019-02-19T23:45:20.916Z,11.70
2019-02-19T23:47:52.659Z,13.80
2019-02-19T23:50:24.009Z,14.33
2019-02-19T23:52:55.399Z,15.00
2019-02-19T23:55:26.767Z,22.30
2019-02-19T23:57:58.337Z,13.33
